sensor_id;sensor_type;location;lat;lon;timestamp;temperature;humidity
3256;DHT22;1640;48.504;9.224;2023-07-08T00:03:37;25.00;33.90
3256;DHT22;1640;48.504;9.224;2023-07-08T00:06:09;25.00;33.80
3256;DHT22;1640;48.504;9.224;2023-07-08T00:08:39;25.00;33.40
3256;DHT22;1640;48.504;9.224;2023-07-08T00:11:10;25.00;33.70
3256;DHT22;1640;48.504;9.224;2023-07-08T00:13:37;24.90;33.90
3256;DHT22;1640;48.504;9.224;2023-07-08T00:16:07;24.90;34.20
3256;DHT22;1640;48.504;9.224;2023-07-08T00:18:35;24.80;34.70
3256;DHT22;1640;48.504;9.224;2023-07-08T00:21:07;24.90;34.90
3256;DHT22;1640;48.504;9.224;2023-07-08T00:23:35;24.80;35.30
3256;DHT22;1640;48.504;9.224;2023-07-08T00:26:10;24.80;35.70
3256;DHT22;1640;48.504;9.224;2023-07-08T00:28:38;24.80;35.00
3256;DHT22;1640;48.504;9.224;2023-07-08T00:31:08;24.80;35.20
3256;DHT22;1640;48.504;9.224;2023-07-08T00:33:37;24.80;35.20
3256;DHT22;1640;48.504;9.224;2023-07-08T00:36:09;24.70;35.20
3256;DHT22;1640;48.504;9.224;2023-07-08T00:38:38;24.60;35.20
3256;DHT22;1640;48.504;9.224;2023-07-08T00:41:16;24.60;35.60
3256;DHT22;1640;48.504;9.224;2023-07-08T00:43:50;24.40;36.20
3256;DHT22;1640;48.504;9.224;2023-07-08T00:46:30;24.20;36.50
3256;DHT22;1640;48.504;9.224;2023-07-08T00:49:03;24.10;36.90
3256;DHT22;1640;48.504;9.224;2023-07-08T00:51:36;23.90;37.50
3256;DHT22;1640;48.504;9.224;2023-07-08T00:54:04;23.90;37.90
3256;DHT22;1640;48.504;9.224;2023-07-08T00:56:36;23.90;37.50
3256;DHT22;1640;48.504;9.224;2023-07-08T00:59:09;23.90;37.90
3256;DHT22;1640;48.504;9.224;2023-07-08T01:01:40;23.80;37.90
3256;DHT22;1640;48.504;9.224;2023-07-08T01:04:10;23.60;38.40
3256;DHT22;1640;48.504;9.224;2023-07-08T01:06:43;23.50;38.50
3256;DHT22;1640;48.504;9.224;2023-07-08T01:09:13;23.40;39.50
3256;DHT22;1640;48.504;9.224;2023-07-08T01:11:42;23.20;39.80
3256;DHT22;1640;48.504;9.224;2023-07-08T01:14:12;23.00;40.90
3256;DHT22;1640;48.504;9.224;2023-07-08T01:16:41;22.90;41.40
3256;DHT22;1640;48.504;9.224;2023-07-08T01:19:16;22.80;41.50
3256;DHT22;1640;48.504;9.224;2023-07-08T01:21:58;22.70;42.10
3256;DHT22;1640;48.504;9.224;2023-07-08T01:24:27;22.50;42.30
3256;DHT22;1640;48.504;9.224;2023-07-08T01:26:55;22.40;43.60
3256;DHT22;1640;48.504;9.224;2023-07-08T01:29:23;22.30;43.60
3256;DHT22;1640;48.504;9.224;2023-07-08T01:31:50;22.20;43.30
3256;DHT22;1640;48.504;9.224;2023-07-08T01:34:18;22.10;44.50
3256;DHT22;1640;48.504;9.224;2023-07-08T01:36:55;22.00;45.90
3256;DHT22;1640;48.504;9.224;2023-07-08T01:39:24;21.80;45.20
3256;DHT22;1640;48.504;9.224;2023-07-08T01:41:52;21.70;45.90
3256;DHT22;1640;48.504;9.224;2023-07-08T01:44:22;21.60;46.00
3256;DHT22;1640;48.504;9.224;2023-07-08T01:46:50;21.60;46.00
3256;DHT22;1640;48.504;9.224;2023-07-08T01:49:20;21.50;47.20
3256;DHT22;1640;48.504;9.224;2023-07-08T01:51:48;21.40;48.00
3256;DHT22;1640;48.504;9.224;2023-07-08T01:54:18;21.30;48.90
3256;DHT22;1640;48.504;9.224;2023-07-08T01:56:45;21.20;48.90
3256;DHT22;1640;48.504;9.224;2023-07-08T01:59:13;21.10;49.10
3256;DHT22;1640;48.504;9.224;2023-07-08T02:01:40;21.00;49.80
3256;DHT22;1640;48.504;9.224;2023-07-08T02:04:08;21.00;50.40
3256;DHT22;1640;48.504;9.224;2023-07-08T02:06:35;21.00;49.50
3256;DHT22;1640;48.504;9.224;2023-07-08T02:09:03;21.10;49.30
3256;DHT22;1640;48.504;9.224;2023-07-08T02:11:33;21.10;49.50
3256;DHT22;1640;48.504;9.224;2023-07-08T02:14:00;21.10;48.70
3256;DHT22;1640;48.504;9.224;2023-07-08T02:16:29;21.10;50.20
3256;DHT22;1640;48.504;9.224;2023-07-08T02:18:57;21.10;51.20
3256;DHT22;1640;48.504;9.224;2023-07-08T02:21:24;21.00;50.20
3256;DHT22;1640;48.504;9.224;2023-07-08T02:23:52;20.90;50.20
3256;DHT22;1640;48.504;9.224;2023-07-08T02:26:19;21.00;49.50
3256;DHT22;1640;48.504;9.224;2023-07-08T02:28:48;21.10;50.50
3256;DHT22;1640;48.504;9.224;2023-07-08T02:31:16;21.10;49.90
3256;DHT22;1640;48.504;9.224;2023-07-08T02:33:43;21.10;49.40
3256;DHT22;1640;48.504;9.224;2023-07-08T02:36:11;21.10;49.40
3256;DHT22;1640;48.504;9.224;2023-07-08T02:38:38;21.10;49.80
3256;DHT22;1640;48.504;9.224;2023-07-08T02:41:06;21.10;49.80
3256;DHT22;1640;48.504;9.224;2023-07-08T02:43:33;21.10;50.10
3256;DHT22;1640;48.504;9.224;2023-07-08T02:46:02;21.20;49.90
3256;DHT22;1640;48.504;9.224;2023-07-08T02:48:30;21.20;49.70
3256;DHT22;1640;48.504;9.224;2023-07-08T02:51:00;21.20;49.90
3256;DHT22;1640;48.504;9.224;2023-07-08T02:53:28;21.20;49.80
3256;DHT22;1640;48.504;9.224;2023-07-08T02:55:56;21.20;49.80
3256;DHT22;1640;48.504;9.224;2023-07-08T02:58:24;21.40;49.40
3256;DHT22;1640;48.504;9.224;2023-07-08T03:00:52;21.60;49.10
3256;DHT22;1640;48.504;9.224;2023-07-08T03:03:21;21.50;48.90
3256;DHT22;1640;48.504;9.224;2023-07-08T03:05:54;21.50;49.30
3256;DHT22;1640;48.504;9.224;2023-07-08T03:08:22;21.50;49.10
3256;DHT22;1640;48.504;9.224;2023-07-08T03:10:55;21.50;49.30
3256;DHT22;1640;48.504;9.224;2023-07-08T03:13:23;21.50;49.50
3256;DHT22;1640;48.504;9.224;2023-07-08T03:15:51;21.50;49.50
3256;DHT22;1640;48.504;9.224;2023-07-08T03:18:22;21.40;49.90
3256;DHT22;1640;48.504;9.224;2023-07-08T03:20:50;21.30;50.40
3256;DHT22;1640;48.504;9.224;2023-07-08T03:23:17;21.30;50.60
3256;DHT22;1640;48.504;9.224;2023-07-08T03:25:45;21.20;50.90
3256;DHT22;1640;48.504;9.224;2023-07-08T03:28:12;21.20;51.30
3256;DHT22;1640;48.504;9.224;2023-07-08T03:30:41;21.10;51.40
3256;DHT22;1640;48.504;9.224;2023-07-08T03:33:09;21.10;51.30
3256;DHT22;1640;48.504;9.224;2023-07-08T03:35:38;21.10;51.70
3256;DHT22;1640;48.504;9.224;2023-07-08T03:38:06;21.10;51.70
3256;DHT22;1640;48.504;9.224;2023-07-08T03:40:33;21.10;51.70
3256;DHT22;1640;48.504;9.224;2023-07-08T03:43:01;21.10;52.70
3256;DHT22;1640;48.504;9.224;2023-07-08T03:45:28;21.00;52.50
3256;DHT22;1640;48.504;9.224;2023-07-08T03:47:56;20.90;53.50
3256;DHT22;1640;48.504;9.224;2023-07-08T03:50:25;20.90;54.70
3256;DHT22;1640;48.504;9.224;2023-07-08T03:52:54;20.90;54.20
3256;DHT22;1640;48.504;9.224;2023-07-08T03:55:22;20.80;54.00
3256;DHT22;1640;48.504;9.224;2023-07-08T03:57:50;20.90;55.00
3256;DHT22;1640;48.504;9.224;2023-07-08T04:00:17;20.90;55.20
3256;DHT22;1640;48.504;9.224;2023-07-08T04:02:46;20.90;55.10
3256;DHT22;1640;48.504;9.224;2023-07-08T04:05:14;20.90;55.80
3256;DHT22;1640;48.504;9.224;2023-07-08T04:07:41;21.00;56.20
3256;DHT22;1640;48.504;9.224;2023-07-08T04:10:11;21.20;55.40
3256;DHT22;1640;48.504;9.224;2023-07-08T04:12:39;21.30;56.60
3256;DHT22;1640;48.504;9.224;2023-07-08T04:15:09;21.40;56.30
3256;DHT22;1640;48.504;9.224;2023-07-08T04:17:39;21.50;55.80
3256;DHT22;1640;48.504;9.224;2023-07-08T04:20:09;21.60;56.30
3256;DHT22;1640;48.504;9.224;2023-07-08T04:22:37;21.60;55.80
3256;DHT22;1640;48.504;9.224;2023-07-08T04:25:05;21.70;54.80
3256;DHT22;1640;48.504;9.224;2023-07-08T04:27:34;21.70;54.30
3256;DHT22;1640;48.504;9.224;2023-07-08T04:30:01;21.80;55.00
3256;DHT22;1640;48.504;9.224;2023-07-08T04:32:32;21.90;53.90
3256;DHT22;1640;48.504;9.224;2023-07-08T04:34:59;22.00;53.70
3256;DHT22;1640;48.504;9.224;2023-07-08T04:37:27;22.10;55.10
3256;DHT22;1640;48.504;9.224;2023-07-08T04:39:54;22.00;54.60
3256;DHT22;1640;48.504;9.224;2023-07-08T04:42:22;22.10;55.00
3256;DHT22;1640;48.504;9.224;2023-07-08T04:44:51;22.10;54.80
3256;DHT22;1640;48.504;9.224;2023-07-08T04:47:19;22.10;54.60
3256;DHT22;1640;48.504;9.224;2023-07-08T04:49:46;22.20;55.00
3256;DHT22;1640;48.504;9.224;2023-07-08T04:52:14;22.40;54.70
3256;DHT22;1640;48.504;9.224;2023-07-08T04:54:41;22.40;56.20
3256;DHT22;1640;48.504;9.224;2023-07-08T04:57:09;22.50;55.60
3256;DHT22;1640;48.504;9.224;2023-07-08T04:59:36;22.60;55.80
3256;DHT22;1640;48.504;9.224;2023-07-08T05:02:05;22.60;56.60
3256;DHT22;1640;48.504;9.224;2023-07-08T05:04:33;22.40;57.50
3256;DHT22;1640;48.504;9.224;2023-07-08T05:07:01;22.20;58.10
3256;DHT22;1640;48.504;9.224;2023-07-08T05:09:28;21.80;59.60
3256;DHT22;1640;48.504;9.224;2023-07-08T05:11:57;21.70;60.30
3256;DHT22;1640;48.504;9.224;2023-07-08T05:14:25;21.60;60.70
3256;DHT22;1640;48.504;9.224;2023-07-08T05:16:52;21.40;61.40
3256;DHT22;1640;48.504;9.224;2023-07-08T05:19:21;21.30;61.30
3256;DHT22;1640;48.504;9.224;2023-07-08T05:21:49;21.30;61.00
3256;DHT22;1640;48.504;9.224;2023-07-08T05:24:16;21.30;60.60
3256;DHT22;1640;48.504;9.224;2023-07-08T05:26:44;21.30;60.60
3256;DHT22;1640;48.504;9.224;2023-07-08T05:29:11;21.50;61.00
3256;DHT22;1640;48.504;9.224;2023-07-08T05:31:39;21.60;60.10
3256;DHT22;1640;48.504;9.224;2023-07-08T05:34:06;21.90;59.60
3256;DHT22;1640;48.504;9.224;2023-07-08T05:36:35;21.90;60.00
3256;DHT22;1640;48.504;9.224;2023-07-08T05:39:03;22.00;59.50
3256;DHT22;1640;48.504;9.224;2023-07-08T05:41:30;22.10;59.30
3256;DHT22;1640;48.504;9.224;2023-07-08T05:43:58;22.20;59.00
3256;DHT22;1640;48.504;9.224;2023-07-08T05:46:25;22.30;58.90
3256;DHT22;1640;48.504;9.224;2023-07-08T05:48:53;22.50;58.40
3256;DHT22;1640;48.504;9.224;2023-07-08T05:51:21;22.40;57.00
3256;DHT22;1640;48.504;9.224;2023-07-08T05:53:50;22.30;58.00
3256;DHT22;1640;48.504;9.224;2023-07-08T05:56:17;22.30;58.50
3256;DHT22;1640;48.504;9.224;2023-07-08T05:58:45;22.60;58.60
3256;DHT22;1640;48.504;9.224;2023-07-08T06:01:12;22.80;57.10
3256;DHT22;1640;48.504;9.224;2023-07-08T06:03:39;22.90;57.80
3256;DHT22;1640;48.504;9.224;2023-07-08T06:06:07;23.10;55.90
3256;DHT22;1640;48.504;9.224;2023-07-08T06:08:35;23.20;55.80
3256;DHT22;1640;48.504;9.224;2023-07-08T06:11:04;23.20;56.70
3256;DHT22;1640;48.504;9.224;2023-07-08T06:13:31;23.20;56.70
3256;DHT22;1640;48.504;9.224;2023-07-08T06:15:59;23.30;56.70
3256;DHT22;1640;48.504;9.224;2023-07-08T06:18:26;23.40;56.50
3256;DHT22;1640;48.504;9.224;2023-07-08T06:20:55;23.30;55.60
3256;DHT22;1640;48.504;9.224;2023-07-08T06:23:23;23.40;55.90
3256;DHT22;1640;48.504;9.224;2023-07-08T06:25:51;23.50;56.10
3256;DHT22;1640;48.504;9.224;2023-07-08T06:28:20;23.50;55.40
3256;DHT22;1640;48.504;9.224;2023-07-08T06:30:48;23.70;56.60
3256;DHT22;1640;48.504;9.224;2023-07-08T06:33:16;23.80;55.80
3256;DHT22;1640;48.504;9.224;2023-07-08T06:35:43;23.90;55.60
3256;DHT22;1640;48.504;9.224;2023-07-08T06:38:12;24.00;54.60
3256;DHT22;1640;48.504;9.224;2023-07-08T06:40:39;24.00;55.10
3256;DHT22;1640;48.504;9.224;2023-07-08T06:43:07;24.00;54.70
3256;DHT22;1640;48.504;9.224;2023-07-08T06:45:36;24.10;55.20
3256;DHT22;1640;48.504;9.224;2023-07-08T06:48:04;24.30;55.20
3256;DHT22;1640;48.504;9.224;2023-07-08T06:50:31;24.30;54.60
3256;DHT22;1640;48.504;9.224;2023-07-08T06:52:59;24.40;55.40
3256;DHT22;1640;48.504;9.224;2023-07-08T06:55:27;24.40;54.60
3256;DHT22;1640;48.504;9.224;2023-07-08T06:57:56;24.50;54.70
3256;DHT22;1640;48.504;9.224;2023-07-08T07:00:23;24.60;53.10
3256;DHT22;1640;48.504;9.224;2023-07-08T07:02:52;24.60;53.50
3256;DHT22;1640;48.504;9.224;2023-07-08T07:05:20;24.70;54.30
3256;DHT22;1640;48.504;9.224;2023-07-08T07:07:47;24.80;53.10
3256;DHT22;1640;48.504;9.224;2023-07-08T07:10:15;25.00;52.40
3256;DHT22;1640;48.504;9.224;2023-07-08T07:12:42;25.20;52.90
3256;DHT22;1640;48.504;9.224;2023-07-08T07:15:10;25.30;53.20
3256;DHT22;1640;48.504;9.224;2023-07-08T07:17:37;25.40;51.80
3256;DHT22;1640;48.504;9.224;2023-07-08T07:20:08;25.50;52.00
3256;DHT22;1640;48.504;9.224;2023-07-08T07:22:36;25.60;51.20
3256;DHT22;1640;48.504;9.224;2023-07-08T07:25:06;25.70;50.80
3256;DHT22;1640;48.504;9.224;2023-07-08T07:27:34;25.80;51.00
3256;DHT22;1640;48.504;9.224;2023-07-08T07:30:02;25.90;50.90
3256;DHT22;1640;48.504;9.224;2023-07-08T07:32:42;25.90;49.90
3256;DHT22;1640;48.504;9.224;2023-07-08T07:35:13;26.00;50.10
3256;DHT22;1640;48.504;9.224;2023-07-08T07:37:41;26.20;50.40
3256;DHT22;1640;48.504;9.224;2023-07-08T07:40:10;26.30;49.30
3256;DHT22;1640;48.504;9.224;2023-07-08T07:42:40;26.30;49.90
3256;DHT22;1640;48.504;9.224;2023-07-08T07:45:09;26.60;49.40
3256;DHT22;1640;48.504;9.224;2023-07-08T07:47:37;26.80;48.20
3256;DHT22;1640;48.504;9.224;2023-07-08T07:50:06;26.80;47.60
3256;DHT22;1640;48.504;9.224;2023-07-08T07:52:35;26.80;48.20
3256;DHT22;1640;48.504;9.224;2023-07-08T07:55:04;26.70;48.00
3256;DHT22;1640;48.504;9.224;2023-07-08T07:57:31;26.30;49.10
3256;DHT22;1640;48.504;9.224;2023-07-08T07:59:59;26.20;51.20
3256;DHT22;1640;48.504;9.224;2023-07-08T08:02:26;26.20;49.70
3256;DHT22;1640;48.504;9.224;2023-07-08T08:04:54;26.20;49.90
3256;DHT22;1640;48.504;9.224;2023-07-08T08:07:21;26.20;49.40
3256;DHT22;1640;48.504;9.224;2023-07-08T08:09:50;26.30;50.20
3256;DHT22;1640;48.504;9.224;2023-07-08T08:12:18;26.50;49.40
3256;DHT22;1640;48.504;9.224;2023-07-08T08:14:48;26.80;50.50
3256;DHT22;1640;48.504;9.224;2023-07-08T08:17:16;27.10;48.60
3256;DHT22;1640;48.504;9.224;2023-07-08T08:19:43;27.10;47.20
3256;DHT22;1640;48.504;9.224;2023-07-08T08:22:11;27.10;47.50
3256;DHT22;1640;48.504;9.224;2023-07-08T08:24:39;27.30;47.40
3256;DHT22;1640;48.504;9.224;2023-07-08T08:27:08;27.20;47.50
3256;DHT22;1640;48.504;9.224;2023-07-08T08:29:35;27.20;47.40
3256;DHT22;1640;48.504;9.224;2023-07-08T08:32:03;27.20;46.70
3256;DHT22;1640;48.504;9.224;2023-07-08T08:34:31;26.80;51.60
3256;DHT22;1640;48.504;9.224;2023-07-08T08:36:59;26.60;52.50
3256;DHT22;1640;48.504;9.224;2023-07-08T08:39:26;26.50;52.30
3256;DHT22;1640;48.504;9.224;2023-07-08T08:41:55;26.20;52.40
3256;DHT22;1640;48.504;9.224;2023-07-08T08:44:29;26.20;52.90
3256;DHT22;1640;48.504;9.224;2023-07-08T08:47:02;26.30;53.60
3256;DHT22;1640;48.504;9.224;2023-07-08T08:49:39;26.60;52.00
3256;DHT22;1640;48.504;9.224;2023-07-08T08:52:08;26.80;51.40
3256;DHT22;1640;48.504;9.224;2023-07-08T08:54:36;26.90;51.60
3256;DHT22;1640;48.504;9.224;2023-07-08T08:57:10;26.90;50.90
3256;DHT22;1640;48.504;9.224;2023-07-08T08:59:44;26.90;51.70
3256;DHT22;1640;48.504;9.224;2023-07-08T09:02:32;26.70;50.40
3256;DHT22;1640;48.504;9.224;2023-07-08T09:05:04;26.80;50.60
3256;DHT22;1640;48.504;9.224;2023-07-08T09:07:39;26.90;51.30
3256;DHT22;1640;48.504;9.224;2023-07-08T09:10:15;27.10;50.90
3256;DHT22;1640;48.504;9.224;2023-07-08T09:12:49;26.90;51.40
3256;DHT22;1640;48.504;9.224;2023-07-08T09:15:19;26.80;50.50
3256;DHT22;1640;48.504;9.224;2023-07-08T09:17:47;26.50;51.30
3256;DHT22;1640;48.504;9.224;2023-07-08T09:20:21;26.60;52.70
3256;DHT22;1640;48.504;9.224;2023-07-08T09:22:53;26.80;52.50
3256;DHT22;1640;48.504;9.224;2023-07-08T09:25:27;27.00;52.10
3256;DHT22;1640;48.504;9.224;2023-07-08T09:27:57;27.30;49.90
3256;DHT22;1640;48.504;9.224;2023-07-08T09:30:27;27.50;49.40
3256;DHT22;1640;48.504;9.224;2023-07-08T09:32:57;27.60;49.90
3256;DHT22;1640;48.504;9.224;2023-07-08T09:35:27;27.60;50.40
3256;DHT22;1640;48.504;9.224;2023-07-08T09:37:55;27.50;49.50
3256;DHT22;1640;48.504;9.224;2023-07-08T09:40:29;27.50;51.00
3256;DHT22;1640;48.504;9.224;2023-07-08T09:43:01;27.60;48.90
3256;DHT22;1640;48.504;9.224;2023-07-08T09:45:40;27.40;50.20
3256;DHT22;1640;48.504;9.224;2023-07-08T09:48:16;27.50;50.90
3256;DHT22;1640;48.504;9.224;2023-07-08T09:50:46;27.70;50.40
3256;DHT22;1640;48.504;9.224;2023-07-08T09:53:14;27.70;49.80
3256;DHT22;1640;48.504;9.224;2023-07-08T09:55:42;27.90;51.00
3256;DHT22;1640;48.504;9.224;2023-07-08T09:58:13;28.20;49.90
3256;DHT22;1640;48.504;9.224;2023-07-08T10:00:42;28.60;48.00
3256;DHT22;1640;48.504;9.224;2023-07-08T10:03:21;28.80;47.80
3256;DHT22;1640;48.504;9.224;2023-07-08T10:05:51;29.00;48.30
3256;DHT22;1640;48.504;9.224;2023-07-08T10:08:24;28.90;47.50
3256;DHT22;1640;48.504;9.224;2023-07-08T10:10:57;28.70;48.20
3256;DHT22;1640;48.504;9.224;2023-07-08T10:13:32;28.70;49.30
3256;DHT22;1640;48.504;9.224;2023-07-08T10:16:15;28.50;48.20
3256;DHT22;1640;48.504;9.224;2023-07-08T10:18:43;28.40;47.80
3256;DHT22;1640;48.504;9.224;2023-07-08T10:21:22;28.20;48.70
3256;DHT22;1640;48.504;9.224;2023-07-08T10:24:00;28.00;48.90
3256;DHT22;1640;48.504;9.224;2023-07-08T10:26:32;27.80;49.70
3256;DHT22;1640;48.504;9.224;2023-07-08T10:29:11;27.70;49.80
3256;DHT22;1640;48.504;9.224;2023-07-08T10:31:48;27.80;50.40
3256;DHT22;1640;48.504;9.224;2023-07-08T10:34:33;28.20;48.70
3256;DHT22;1640;48.504;9.224;2023-07-08T10:37:09;28.50;47.60
3256;DHT22;1640;48.504;9.224;2023-07-08T10:39:50;28.90;46.40
3256;DHT22;1640;48.504;9.224;2023-07-08T10:42:32;29.00;45.50
3256;DHT22;1640;48.504;9.224;2023-07-08T10:45:09;29.00;45.20
3256;DHT22;1640;48.504;9.224;2023-07-08T10:48:03;29.00;44.80
3256;DHT22;1640;48.504;9.224;2023-07-08T10:50:45;29.20;43.80
3256;DHT22;1640;48.504;9.224;2023-07-08T10:53:30;29.30;42.20
3256;DHT22;1640;48.504;9.224;2023-07-08T10:56:04;29.30;42.30
3256;DHT22;1640;48.504;9.224;2023-07-08T10:58:55;29.00;44.00
3256;DHT22;1640;48.504;9.224;2023-07-08T11:01:29;29.10;44.70
3256;DHT22;1640;48.504;9.224;2023-07-08T11:04:21;29.20;43.30
3256;DHT22;1640;48.504;9.224;2023-07-08T11:06:56;29.20;44.00
3256;DHT22;1640;48.504;9.224;2023-07-08T11:09:30;29.30;43.40
3256;DHT22;1640;48.504;9.224;2023-07-08T11:12:03;29.30;43.60
3256;DHT22;1640;48.504;9.224;2023-07-08T11:14:40;29.30;44.40
3256;DHT22;1640;48.504;9.224;2023-07-08T11:17:14;29.40;44.50
3256;DHT22;1640;48.504;9.224;2023-07-08T11:19:50;29.50;42.80
3256;DHT22;1640;48.504;9.224;2023-07-08T11:22:21;29.50;43.70
3256;DHT22;1640;48.504;9.224;2023-07-08T11:24:50;29.70;43.70
3256;DHT22;1640;48.504;9.224;2023-07-08T11:27:21;29.70;41.90
3256;DHT22;1640;48.504;9.224;2023-07-08T11:29:55;29.80;43.40
3256;DHT22;1640;48.504;9.224;2023-07-08T11:32:26;29.80;42.90
3256;DHT22;1640;48.504;9.224;2023-07-08T11:34:57;29.90;43.00
3256;DHT22;1640;48.504;9.224;2023-07-08T11:37:27;29.80;41.90
3256;DHT22;1640;48.504;9.224;2023-07-08T11:39:58;29.60;41.80
3256;DHT22;1640;48.504;9.224;2023-07-08T11:42:34;29.50;42.10
3256;DHT22;1640;48.504;9.224;2023-07-08T11:45:08;29.40;42.30
3256;DHT22;1640;48.504;9.224;2023-07-08T11:47:44;29.40;43.20
3256;DHT22;1640;48.504;9.224;2023-07-08T11:50:21;29.40;42.50
3256;DHT22;1640;48.504;9.224;2023-07-08T11:52:53;29.50;42.50
3256;DHT22;1640;48.504;9.224;2023-07-08T11:55:24;29.60;41.50
3256;DHT22;1640;48.504;9.224;2023-07-08T11:57:55;29.80;41.00
3256;DHT22;1640;48.504;9.224;2023-07-08T12:00:25;29.80;41.10
3256;DHT22;1640;48.504;9.224;2023-07-08T12:02:55;29.70;41.10
3256;DHT22;1640;48.504;9.224;2023-07-08T12:05:32;29.70;42.30
3256;DHT22;1640;48.504;9.224;2023-07-08T12:08:01;29.80;41.00
3256;DHT22;1640;48.504;9.224;2023-07-08T12:10:34;29.80;41.40
3256;DHT22;1640;48.504;9.224;2023-07-08T12:13:02;29.70;41.70
3256;DHT22;1640;48.504;9.224;2023-07-08T12:15:32;29.70;41.90
3256;DHT22;1640;48.504;9.224;2023-07-08T12:18:01;29.70;42.10
3256;DHT22;1640;48.504;9.224;2023-07-08T12:20:35;29.80;40.70
3256;DHT22;1640;48.504;9.224;2023-07-08T12:23:04;30.00;41.00
3256;DHT22;1640;48.504;9.224;2023-07-08T12:25:36;29.90;41.00
3256;DHT22;1640;48.504;9.224;2023-07-08T12:28:04;30.00;40.90
3256;DHT22;1640;48.504;9.224;2023-07-08T12:30:32;30.10;40.90
3256;DHT22;1640;48.504;9.224;2023-07-08T12:33:01;30.20;40.60
3256;DHT22;1640;48.504;9.224;2023-07-08T12:35:33;30.50;40.40
3256;DHT22;1640;48.504;9.224;2023-07-08T12:38:03;30.60;40.00
3256;DHT22;1640;48.504;9.224;2023-07-08T12:40:32;30.70;41.40
3256;DHT22;1640;48.504;9.224;2023-07-08T12:42:59;30.80;39.90
3256;DHT22;1640;48.504;9.224;2023-07-08T12:45:30;30.70;40.00
3256;DHT22;1640;48.504;9.224;2023-07-08T12:47:58;30.60;40.60
3256;DHT22;1640;48.504;9.224;2023-07-08T12:50:25;30.80;40.70
3256;DHT22;1640;48.504;9.224;2023-07-08T12:52:54;31.00;38.80
3256;DHT22;1640;48.504;9.224;2023-07-08T12:55:23;31.00;39.00
3256;DHT22;1640;48.504;9.224;2023-07-08T12:57:52;31.20;40.60
3256;DHT22;1640;48.504;9.224;2023-07-08T13:00:24;31.40;39.00
3256;DHT22;1640;48.504;9.224;2023-07-08T13:02:58;31.50;39.90
3256;DHT22;1640;48.504;9.224;2023-07-08T13:05:26;31.60;38.50
3256;DHT22;1640;48.504;9.224;2023-07-08T13:07:56;31.70;37.30
3256;DHT22;1640;48.504;9.224;2023-07-08T13:10:25;31.80;37.50
3256;DHT22;1640;48.504;9.224;2023-07-08T13:12:56;31.70;37.50
3256;DHT22;1640;48.504;9.224;2023-07-08T13:15:29;31.70;36.80
3256;DHT22;1640;48.504;9.224;2023-07-08T13:17:59;31.70;37.60
3256;DHT22;1640;48.504;9.224;2023-07-08T13:20:27;31.60;37.10
3256;DHT22;1640;48.504;9.224;2023-07-08T13:23:00;31.70;38.10
3256;DHT22;1640;48.504;9.224;2023-07-08T13:25:29;31.70;37.60
3256;DHT22;1640;48.504;9.224;2023-07-08T13:27:59;31.90;37.60
3256;DHT22;1640;48.504;9.224;2023-07-08T13:30:29;32.30;36.20
3256;DHT22;1640;48.504;9.224;2023-07-08T13:32:58;32.70;36.60
3256;DHT22;1640;48.504;9.224;2023-07-08T13:35:28;33.20;36.00
3256;DHT22;1640;48.504;9.224;2023-07-08T13:38:05;33.40;34.10
3256;DHT22;1640;48.504;9.224;2023-07-08T13:40:45;33.50;33.40
3256;DHT22;1640;48.504;9.224;2023-07-08T13:43:13;33.30;32.70
3256;DHT22;1640;48.504;9.224;2023-07-08T13:45:44;33.00;33.80
3256;DHT22;1640;48.504;9.224;2023-07-08T13:48:20;32.70;35.00
3256;DHT22;1640;48.504;9.224;2023-07-08T13:50:53;32.40;34.10
3256;DHT22;1640;48.504;9.224;2023-07-08T13:53:26;32.20;35.60
3256;DHT22;1640;48.504;9.224;2023-07-08T13:55:59;32.30;36.20
3256;DHT22;1640;48.504;9.224;2023-07-08T13:58:29;32.50;35.80
3256;DHT22;1640;48.504;9.224;2023-07-08T14:00:57;32.50;34.60
3256;DHT22;1640;48.504;9.224;2023-07-08T14:03:25;32.60;35.30
3256;DHT22;1640;48.504;9.224;2023-07-08T14:05:53;32.80;33.50
3256;DHT22;1640;48.504;9.224;2023-07-08T14:08:21;33.10;32.80
3256;DHT22;1640;48.504;9.224;2023-07-08T14:10:50;33.20;32.00
3256;DHT22;1640;48.504;9.224;2023-07-08T14:13:18;33.40;32.60
3256;DHT22;1640;48.504;9.224;2023-07-08T14:18:13;34.00;32.30
3256;DHT22;1640;48.504;9.224;2023-07-08T14:20:41;34.10;30.90
3256;DHT22;1640;48.504;9.224;2023-07-08T14:23:10;34.20;30.10
3256;DHT22;1640;48.504;9.224;2023-07-08T14:25:39;34.20;29.80
3256;DHT22;1640;48.504;9.224;2023-07-08T14:28:11;34.50;29.90
3256;DHT22;1640;48.504;9.224;2023-07-08T14:30:42;35.30;29.60
3256;DHT22;1640;48.504;9.224;2023-07-08T14:33:11;36.40;27.90
3256;DHT22;1640;48.504;9.224;2023-07-08T14:35:40;37.00;27.20
3256;DHT22;1640;48.504;9.224;2023-07-08T14:38:10;36.70;27.00
3256;DHT22;1640;48.504;9.224;2023-07-08T14:40:40;37.30;27.00
3256;DHT22;1640;48.504;9.224;2023-07-08T14:43:15;38.80;25.70
3256;DHT22;1640;48.504;9.224;2023-07-08T14:45:49;38.70;25.00
3256;DHT22;1640;48.504;9.224;2023-07-08T14:48:17;39.30;23.80
3256;DHT22;1640;48.504;9.224;2023-07-08T14:53:13;40.20;23.60
3256;DHT22;1640;48.504;9.224;2023-07-08T14:55:42;40.40;23.10
3256;DHT22;1640;48.504;9.224;2023-07-08T14:58:11;40.40;23.10
3256;DHT22;1640;48.504;9.224;2023-07-08T15:00:45;40.80;23.40
3256;DHT22;1640;48.504;9.224;2023-07-08T15:03:13;41.50;23.60
3256;DHT22;1640;48.504;9.224;2023-07-08T15:05:40;42.70;21.80
3256;DHT22;1640;48.504;9.224;2023-07-08T15:08:09;42.60;21.50
3256;DHT22;1640;48.504;9.224;2023-07-08T15:10:37;41.70;21.90
3256;DHT22;1640;48.504;9.224;2023-07-08T15:13:08;42.10;23.10
3256;DHT22;1640;48.504;9.224;2023-07-08T15:15:36;43.10;21.30
3256;DHT22;1640;48.504;9.224;2023-07-08T15:18:11;43.20;20.70
3256;DHT22;1640;48.504;9.224;2023-07-08T15:20:39;43.60;20.50
3256;DHT22;1640;48.504;9.224;2023-07-08T15:23:07;43.80;20.80
3256;DHT22;1640;48.504;9.224;2023-07-08T15:25:36;43.60;20.30
3256;DHT22;1640;48.504;9.224;2023-07-08T15:28:05;43.70;20.60
3256;DHT22;1640;48.504;9.224;2023-07-08T15:30:32;43.50;20.10
3256;DHT22;1640;48.504;9.224;2023-07-08T15:33:00;43.30;20.80
3256;DHT22;1640;48.504;9.224;2023-07-08T15:35:29;43.70;19.80
3256;DHT22;1640;48.504;9.224;2023-07-08T15:37:59;44.00;20.70
3256;DHT22;1640;48.504;9.224;2023-07-08T15:40:32;44.20;20.10
3256;DHT22;1640;48.504;9.224;2023-07-08T15:43:01;44.90;19.50
3256;DHT22;1640;48.504;9.224;2023-07-08T15:45:32;45.10;20.00
3256;DHT22;1640;48.504;9.224;2023-07-08T15:48:00;44.20;19.40
3256;DHT22;1640;48.504;9.224;2023-07-08T15:50:29;43.10;20.40
3256;DHT22;1640;48.504;9.224;2023-07-08T15:52:56;42.60;21.40
3256;DHT22;1640;48.504;9.224;2023-07-08T15:55:26;42.50;21.30
3256;DHT22;1640;48.504;9.224;2023-07-08T15:57:58;43.40;20.80
3256;DHT22;1640;48.504;9.224;2023-07-08T16:00:28;43.40;19.80
3256;DHT22;1640;48.504;9.224;2023-07-08T16:02:58;43.90;20.10
3256;DHT22;1640;48.504;9.224;2023-07-08T16:05:26;44.80;19.70
3256;DHT22;1640;48.504;9.224;2023-07-08T16:07:56;45.80;19.00
3256;DHT22;1640;48.504;9.224;2023-07-08T16:10:24;46.20;18.00
3256;DHT22;1640;48.504;9.224;2023-07-08T16:12:54;45.60;18.60
3256;DHT22;1640;48.504;9.224;2023-07-08T16:15:29;45.50;18.70
3256;DHT22;1640;48.504;9.224;2023-07-08T16:17:58;44.90;19.10
3256;DHT22;1640;48.504;9.224;2023-07-08T16:20:28;45.20;19.10
3256;DHT22;1640;48.504;9.224;2023-07-08T16:22:57;44.40;20.30
3256;DHT22;1640;48.504;9.224;2023-07-08T16:25:28;43.80;19.60
3256;DHT22;1640;48.504;9.224;2023-07-08T16:27:57;43.50;20.70